createdAt,value
2022-10-13T00:02:19.451Z,96.20
2022-10-13T00:05:22.001Z,95.80
2022-10-13T00:08:26.699Z,95.80
2022-10-13T00:11:30.723Z,95.80
2022-10-13T00:14:32.874Z,95.80
2022-10-13T00:17:38.944Z,95.80
2022-10-13T00:20:46.553Z,95.80
2022-10-13T00:23:49.600Z,95.90
2022-10-13T00:26:52.578Z,95.90
2022-10-13T00:29:54.870Z,95.90
2022-10-13T00:32:56.975Z,95.90
2022-10-13T00:35:59.091Z,95.80
2022-10-13T00:39:01.162Z,96.00
2022-10-13T00:42:04.697Z,95.90
2022-10-13T00:45:11.900Z,96.10
2022-10-13T00:48:14.656Z,96.30
2022-10-13T00:51:21.076Z,96.30
2022-10-13T00:54:25.589Z,96.20
2022-10-13T00:57:28.005Z,96.20
2022-10-13T01:00:31.883Z,96.20
2022-10-13T01:03:34.299Z,96.30
2022-10-13T01:06:36.646Z,96.50
2022-10-13T01:09:38.702Z,96.60
2022-10-13T01:12:48.464Z,96.50
2022-10-13T01:15:56.203Z,96.70
2022-10-13T01:19:18.018Z,96.80
2022-10-13T01:22:56.945Z,97.00
2022-10-13T01:26:28.004Z,97.10
2022-10-13T01:29:48.652Z,97.30
2022-10-13T01:33:17.843Z,97.40
2022-10-13T01:36:35.942Z,97.30
2022-10-13T01:39:44.703Z,97.50
2022-10-13T01:43:02.117Z,97.50
2022-10-13T01:46:15.923Z,97.40
2022-10-13T01:49:23.888Z,97.40
2022-10-13T01:52:32.408Z,97.50
2022-10-13T01:55:34.664Z,97.50
2022-10-13T01:58:38.451Z,97.70
2022-10-13T02:01:49.402Z,97.60
2022-10-13T02:05:16.295Z,97.50
2022-10-13T02:08:30.316Z,97.60
2022-10-13T02:11:32.775Z,97.40
2022-10-13T02:14:38.503Z,97.60
2022-10-13T02:17:41.826Z,97.50
2022-10-13T02:20:46.001Z,97.90
2022-10-13T02:23:48.225Z,97.40
2022-10-13T02:26:51.915Z,97.40
2022-10-13T02:29:58.158Z,97.50
2022-10-13T02:33:01.776Z,97.50
2022-10-13T02:36:04.139Z,97.50
2022-10-13T02:39:10.873Z,97.50
2022-10-13T02:42:14.626Z,97.50
2022-10-13T02:45:16.872Z,97.40
2022-10-13T02:48:19.157Z,97.50
2022-10-13T02:51:21.322Z,97.60
2022-10-13T02:54:23.382Z,97.70
2022-10-13T02:57:25.519Z,97.60
2022-10-13T03:00:27.665Z,97.80
2022-10-13T03:03:29.855Z,98.10
2022-10-13T03:06:31.865Z,97.50
2022-10-13T03:09:34.002Z,97.50
2022-10-13T03:12:38.258Z,97.80
2022-10-13T03:15:40.410Z,97.70
2022-10-13T03:18:42.411Z,97.70
2022-10-13T03:21:44.575Z,97.90
2022-10-13T03:24:46.636Z,97.70
2022-10-13T03:27:48.888Z,97.80
2022-10-13T03:30:51.540Z,97.80
2022-10-13T03:33:53.713Z,97.80
2022-10-13T03:36:55.818Z,97.80
2022-10-13T03:39:57.977Z,97.90
2022-10-13T03:43:00.088Z,97.90
2022-10-13T03:46:04.103Z,97.90
2022-10-13T03:49:06.386Z,98.00
2022-10-13T03:52:08.708Z,98.10
2022-10-13T03:55:10.775Z,98.20
2022-10-13T03:58:12.869Z,98.20
2022-10-13T04:01:15.187Z,98.20
2022-10-13T04:04:17.284Z,98.20
2022-10-13T04:07:19.394Z,98.40
2022-10-13T04:10:21.472Z,98.30
2022-10-13T04:13:23.893Z,98.50
2022-10-13T04:16:28.963Z,98.40
2022-10-13T04:19:31.100Z,98.60
2022-10-13T04:22:33.222Z,98.60
2022-10-13T04:25:39.325Z,98.70
2022-10-13T04:28:41.489Z,98.90
2022-10-13T04:31:44.019Z,99.20
2022-10-13T04:34:46.066Z,99.10
2022-10-13T04:37:48.109Z,99.30
2022-10-13T04:40:50.569Z,99.60
2022-10-13T04:43:53.958Z,99.60
2022-10-13T04:46:56.008Z,99.90
2022-10-13T04:49:58.031Z,99.90
2022-10-13T04:53:00.435Z,99.90
2022-10-13T04:56:05.092Z,99.90
2022-10-13T04:59:07.204Z,99.90
2022-10-13T05:02:10.630Z,99.90
2022-10-13T05:05:12.741Z,99.90
2022-10-13T05:08:14.842Z,99.90
2022-10-13T05:11:17.967Z,99.90
2022-10-13T05:14:20.294Z,99.90
2022-10-13T05:17:22.367Z,99.90
2022-10-13T05:20:25.330Z,99.90
2022-10-13T05:23:27.431Z,99.90
2022-10-13T05:26:32.151Z,99.90
2022-10-13T05:29:34.340Z,99.90
2022-10-13T05:32:36.669Z,99.90
2022-10-13T05:35:38.859Z,99.90
2022-10-13T05:38:41.376Z,99.90
2022-10-13T05:41:43.416Z,99.90
2022-10-13T05:44:45.676Z,99.90
2022-10-13T05:47:51.796Z,99.90
2022-10-13T05:50:55.592Z,99.90
2022-10-13T05:54:21.687Z,99.90
2022-10-13T05:57:41.289Z,99.90
2022-10-13T06:00:45.475Z,99.90
2022-10-13T06:03:49.431Z,99.90
2022-10-13T06:06:51.715Z,99.90
2022-10-13T06:09:53.802Z,99.90
2022-10-13T06:12:55.843Z,99.90
2022-10-13T06:15:57.915Z,99.90
2022-10-13T06:19:01.292Z,99.90
2022-10-13T06:22:03.869Z,99.90
2022-10-13T06:25:07.584Z,99.90
2022-10-13T06:28:09.632Z,99.90
2022-10-13T06:31:12.310Z,99.90
2022-10-13T06:34:18.441Z,99.90
2022-10-13T06:37:26.233Z,99.90
2022-10-13T06:40:29.452Z,99.90
2022-10-13T06:43:38.912Z,99.90
2022-10-13T06:46:42.153Z,99.90
2022-10-13T06:49:47.040Z,99.90
2022-10-13T06:52:49.090Z,99.90
2022-10-13T06:55:52.628Z,99.90
2022-10-13T06:58:54.789Z,99.90
2022-10-13T07:01:56.801Z,99.90
2022-10-13T07:04:58.973Z,99.90
2022-10-13T07:08:01.140Z,99.90
2022-10-13T07:11:15.867Z,99.90
2022-10-13T07:14:19.177Z,99.90
2022-10-13T07:17:22.555Z,98.60
2022-10-13T07:20:26.401Z,98.80
2022-10-13T07:23:28.645Z,97.00
2022-10-13T07:26:33.993Z,95.90
2022-10-13T07:29:36.212Z,95.40
2022-10-13T07:32:39.487Z,94.20
2022-10-13T07:35:41.595Z,92.60
2022-10-13T07:38:44.072Z,92.70
2022-10-13T07:41:50.768Z,90.50
2022-10-13T07:44:53.574Z,88.70
2022-10-13T07:47:57.053Z,86.50
2022-10-13T07:50:59.561Z,85.30
2022-10-13T07:54:01.629Z,83.30
2022-10-13T07:57:04.076Z,81.00
2022-10-13T08:00:07.059Z,78.50
2022-10-13T08:03:09.958Z,80.10
2022-10-13T08:06:13.755Z,74.00
2022-10-13T08:09:16.103Z,74.60
2022-10-13T08:12:18.652Z,72.90
2022-10-13T08:15:21.025Z,71.30
2022-10-13T08:18:23.093Z,67.70
2022-10-13T08:21:53.229Z,68.90
2022-10-13T08:24:50.264Z,67.20
2022-10-13T08:27:54.727Z,63.40
2022-10-13T08:31:00.438Z,63.00
2022-10-13T08:34:03.683Z,64.80
2022-10-13T08:37:17.153Z,62.00
2022-10-13T08:40:21.889Z,60.10
2022-10-13T08:43:26.273Z,59.40
2022-10-13T08:46:37.670Z,56.50
2022-10-13T08:49:42.666Z,54.70
2022-10-13T08:53:02.156Z,53.80
2022-10-13T08:56:20.450Z,52.90
2022-10-13T08:59:22.866Z,51.70
2022-10-13T09:02:30.893Z,50.20
2022-10-13T09:05:55.843Z,49.30
2022-10-13T09:09:01.288Z,47.60
2022-10-13T09:12:04.638Z,48.00
2022-10-13T09:15:10.283Z,47.50
2022-10-13T09:18:14.273Z,45.30
2022-10-13T09:21:24.015Z,47.80
2022-10-13T09:24:27.347Z,46.30
2022-10-13T09:27:41.797Z,47.60
2022-10-13T09:30:48.468Z,43.90
2022-10-13T09:34:18.918Z,45.80
2022-10-13T09:37:26.118Z,43.80
2022-10-13T09:40:31.567Z,44.90
2022-10-13T09:43:47.511Z,43.70
2022-10-13T09:46:53.970Z,43.70
2022-10-13T09:50:21.118Z,43.40
2022-10-13T09:53:26.401Z,45.40
2022-10-13T09:56:39.806Z,44.70
2022-10-13T10:03:07.242Z,41.40
2022-10-13T10:06:15.090Z,43.00
2022-10-13T10:09:22.972Z,42.70
2022-10-13T10:12:30.819Z,41.20
2022-10-13T10:15:53.281Z,41.00
2022-10-13T10:19:15.588Z,40.50
2022-10-13T10:22:25.339Z,40.10
2022-10-13T10:25:47.452Z,38.80
2022-10-13T10:29:07.420Z,39.00
2022-10-13T10:32:34.881Z,38.90
2022-10-13T10:36:17.374Z,38.20
2022-10-13T10:39:44.542Z,38.10
2022-10-13T10:42:55.477Z,38.70
2022-10-13T10:45:59.397Z,36.50
2022-10-13T10:49:23.795Z,39.10
2022-10-13T10:52:56.439Z,38.20
2022-10-13T10:56:12.945Z,38.10
2022-10-13T10:59:40.399Z,41.10
2022-10-13T11:03:15.276Z,39.30
2022-10-13T11:06:17.259Z,39.40
2022-10-13T11:09:42.364Z,41.50
2022-10-13T11:12:58.831Z,43.40
2022-10-13T11:16:35.154Z,44.00
2022-10-13T11:19:42.302Z,45.60
2022-10-13T11:23:06.222Z,45.40
2022-10-13T11:26:29.929Z,47.10
2022-10-13T11:29:44.610Z,47.80
2022-10-13T11:32:56.455Z,49.10
2022-10-13T11:35:58.629Z,51.70
2022-10-13T11:39:19.527Z,55.00
2022-10-13T11:42:49.539Z,58.20
2022-10-13T11:46:14.708Z,61.90
2022-10-13T11:49:28.508Z,62.80
2022-10-13T11:53:17.295Z,64.80
2022-10-13T11:56:22.273Z,66.40
2022-10-13T11:59:37.621Z,68.60
2022-10-13T12:02:49.637Z,68.30
2022-10-13T12:05:52.236Z,69.80
2022-10-13T12:08:54.467Z,71.10
2022-10-13T12:12:02.863Z,72.10
2022-10-13T12:15:28.357Z,73.50
2022-10-13T12:18:36.204Z,74.20
2022-10-13T12:21:51.185Z,74.00
2022-10-13T12:25:02.361Z,74.60
2022-10-13T12:28:04.595Z,74.00
2022-10-13T12:31:06.706Z,74.10
2022-10-13T12:34:20.387Z,74.60
2022-10-13T12:37:32.736Z,74.30
2022-10-13T12:40:35.428Z,74.00
2022-10-13T12:43:41.947Z,75.20
2022-10-13T12:46:44.068Z,75.50
2022-10-13T12:49:46.157Z,75.40
2022-10-13T12:52:52.386Z,76.40
2022-10-13T12:56:00.758Z,76.10
2022-10-13T12:59:03.892Z,76.10
2022-10-13T13:02:24.280Z,76.00
2022-10-13T13:05:34.779Z,76.40
2022-10-13T13:08:36.986Z,75.40
2022-10-13T13:11:39.694Z,76.00
2022-10-13T13:14:51.050Z,76.00
2022-10-13T13:17:59.013Z,76.40
2022-10-13T13:21:02.196Z,76.80
2022-10-13T13:24:15.972Z,77.30
2022-10-13T13:27:32.162Z,76.80
2022-10-13T13:30:34.235Z,76.80
2022-10-13T13:33:36.412Z,76.60
2022-10-13T13:36:39.226Z,77.00
2022-10-13T13:39:41.451Z,74.90
2022-10-13T13:42:43.578Z,73.40
2022-10-13T13:45:46.773Z,73.50
2022-10-13T13:48:49.144Z,73.00
2022-10-13T13:51:51.157Z,72.30
2022-10-13T13:54:53.612Z,73.30
2022-10-13T13:57:56.160Z,73.40
2022-10-13T14:00:59.969Z,74.20
2022-10-13T14:04:03.214Z,73.60
2022-10-13T14:07:05.220Z,71.40
2022-10-13T14:10:08.830Z,72.80
2022-10-13T14:13:10.896Z,71.40
2022-10-13T14:16:17.910Z,72.10
2022-10-13T14:19:19.984Z,72.70
2022-10-13T14:22:22.854Z,72.40
2022-10-13T14:25:25.236Z,73.00
2022-10-13T14:28:27.580Z,72.40
2022-10-13T14:31:30.763Z,72.80
2022-10-13T14:34:33.741Z,72.60
2022-10-13T14:37:36.167Z,74.30
2022-10-13T14:40:42.261Z,76.30
2022-10-13T14:43:44.543Z,77.60
2022-10-13T14:46:46.716Z,77.60
2022-10-13T14:49:48.772Z,78.00
2022-10-13T14:52:50.747Z,78.90
2022-10-13T14:55:53.417Z,78.80
2022-10-13T14:58:58.256Z,78.40
2022-10-13T15:02:00.588Z,79.80
2022-10-13T15:05:04.086Z,79.80
2022-10-13T15:08:06.227Z,80.00
2022-10-13T15:11:08.507Z,80.40
2022-10-13T15:14:10.767Z,80.80
2022-10-13T15:17:15.149Z,81.60
2022-10-13T15:20:17.302Z,81.30
2022-10-13T15:23:20.364Z,82.30
2022-10-13T15:26:22.606Z,81.10
2022-10-13T15:29:24.727Z,81.30
2022-10-13T15:32:30.145Z,81.60
2022-10-13T15:35:33.070Z,81.70
2022-10-13T15:38:35.146Z,81.60
2022-10-13T15:41:37.131Z,81.50
2022-10-13T15:48:01.582Z,78.10
2022-10-13T15:51:13.691Z,76.30
2022-10-13T15:54:16.540Z,76.10
2022-10-13T15:57:18.683Z,76.80
2022-10-13T16:00:20.838Z,76.10
2022-10-13T16:03:29.668Z,77.30
2022-10-13T16:06:33.587Z,77.30
2022-10-13T16:09:37.047Z,77.10
2022-10-13T16:12:39.826Z,76.60
2022-10-13T16:15:42.934Z,76.90
2022-10-13T16:18:45.478Z,76.70
2022-10-13T16:21:47.631Z,77.70
2022-10-13T16:24:49.685Z,77.70
2022-10-13T16:27:51.811Z,78.10
2022-10-13T16:30:54.007Z,77.70
2022-10-13T16:33:56.328Z,78.50
2022-10-13T16:36:58.574Z,78.10
2022-10-13T16:40:00.652Z,77.90
2022-10-13T16:43:02.659Z,76.70
2022-10-13T16:46:08.355Z,77.30
2022-10-13T16:49:11.431Z,76.20
2022-10-13T16:52:13.700Z,74.30
2022-10-13T16:55:15.993Z,74.60
2022-10-13T16:58:18.207Z,74.30
2022-10-13T17:01:21.004Z,74.20
2022-10-13T17:04:23.190Z,74.80
2022-10-13T17:07:25.255Z,74.30
2022-10-13T17:10:28.186Z,75.90
2022-10-13T17:13:34.136Z,74.90
2022-10-13T17:16:36.505Z,76.90
2022-10-13T17:19:38.774Z,75.70
2022-10-13T17:22:41.682Z,76.80
2022-10-13T17:25:43.756Z,77.40
2022-10-13T17:28:46.223Z,77.70
2022-10-13T17:31:48.355Z,76.90
2022-10-13T17:34:50.515Z,77.10
2022-10-13T17:37:54.753Z,77.30
2022-10-13T17:41:00.582Z,77.50
2022-10-13T17:44:02.665Z,77.70
2022-10-13T17:47:04.772Z,77.80
2022-10-13T17:50:07.035Z,77.50
2022-10-13T17:53:09.146Z,77.50
2022-10-13T17:56:15.066Z,77.80
2022-10-13T17:59:18.212Z,76.90
2022-10-13T18:02:21.704Z,74.70
2022-10-13T18:05:23.713Z,72.00
2022-10-13T18:08:26.243Z,71.60
2022-10-13T18:11:28.342Z,70.00
2022-10-13T18:14:30.369Z,69.30
2022-10-13T18:17:35.108Z,68.80
2022-10-13T18:20:39.308Z,68.20
2022-10-13T18:23:42.138Z,67.50
2022-10-13T18:26:44.515Z,67.70
2022-10-13T18:29:46.587Z,68.30
2022-10-13T18:32:48.692Z,69.10
2022-10-13T18:35:50.791Z,69.10
2022-10-13T18:38:55.210Z,70.20
2022-10-13T18:41:57.773Z,71.70
2022-10-13T18:44:59.854Z,72.70
2022-10-13T18:48:01.897Z,73.70
2022-10-13T18:51:09.599Z,75.90
2022-10-13T18:54:12.373Z,77.50
2022-10-13T18:57:14.378Z,78.90
2022-10-13T19:00:16.771Z,79.70
2022-10-13T19:03:18.890Z,80.60
2022-10-13T19:06:27.233Z,81.20
2022-10-13T19:09:30.323Z,82.50
2022-10-13T19:12:32.357Z,83.70
2022-10-13T19:15:34.369Z,84.60
2022-10-13T19:18:36.702Z,84.80
2022-10-13T19:21:39.623Z,86.10
2022-10-13T19:24:41.675Z,87.50
2022-10-13T19:27:43.651Z,88.60
2022-10-13T19:30:46.093Z,89.50
2022-10-13T19:33:50.369Z,90.10
2022-10-13T19:36:56.658Z,90.20
2022-10-13T19:39:58.850Z,90.80
2022-10-13T19:43:00.935Z,90.80
2022-10-13T19:46:06.913Z,91.30
2022-10-13T19:49:09.935Z,91.10
2022-10-13T19:52:12.250Z,91.50
2022-10-13T19:55:20.965Z,91.90
2022-10-13T19:58:26.580Z,92.40
2022-10-13T20:01:40.556Z,92.70
2022-10-13T20:04:53.491Z,93.00
2022-10-13T20:08:28.190Z,93.10
2022-10-13T20:11:48.875Z,93.40
2022-10-13T20:15:18.164Z,93.50
2022-10-13T20:18:21.697Z,94.00
2022-10-13T20:21:35.835Z,94.00
2022-10-13T20:24:37.861Z,94.20
2022-10-13T20:27:40.253Z,94.10
2022-10-13T20:30:42.287Z,94.50
2022-10-13T20:33:47.025Z,94.70
2022-10-13T20:36:51.164Z,94.80
2022-10-13T20:39:54.137Z,95.20
2022-10-13T20:42:56.267Z,95.30
2022-10-13T20:46:07.460Z,95.50
2022-10-13T20:49:11.378Z,95.90
2022-10-13T20:52:14.866Z,96.00
2022-10-13T20:55:16.895Z,96.30
2022-10-13T20:58:18.954Z,96.30
2022-10-13T21:01:22.746Z,96.70
2022-10-13T21:04:24.988Z,96.70
2022-10-13T21:07:28.594Z,97.10
2022-10-13T21:10:31.144Z,97.40
2022-10-13T21:13:33.624Z,97.40
2022-10-13T21:16:37.213Z,97.70
2022-10-13T21:19:45.843Z,97.90
2022-10-13T21:23:02.868Z,98.00
2022-10-13T21:26:21.182Z,98.40
2022-10-13T21:29:29.835Z,98.60
2022-10-13T21:32:32.348Z,98.50
2022-10-13T21:35:36.044Z,98.60
2022-10-13T21:38:41.531Z,98.70
2022-10-13T21:41:50.479Z,98.80
2022-10-13T21:44:52.603Z,99.00
2022-10-13T21:48:01.497Z,98.70
2022-10-13T21:51:23.553Z,98.90
2022-10-13T21:54:26.430Z,98.90
2022-10-13T21:57:28.653Z,98.70
2022-10-13T22:00:31.026Z,99.00
2022-10-13T22:03:33.681Z,99.20
2022-10-13T22:06:36.703Z,99.10
2022-10-13T22:09:38.804Z,99.30
2022-10-13T22:12:41.393Z,99.20
2022-10-13T22:15:44.182Z,99.20
2022-10-13T22:18:47.149Z,98.90
2022-10-13T22:21:50.259Z,99.50
2022-10-13T22:24:52.553Z,99.20
2022-10-13T22:27:55.655Z,99.40
2022-10-13T22:30:57.695Z,99.30
2022-10-13T22:34:01.152Z,99.60
2022-10-13T22:37:03.501Z,99.60
2022-10-13T22:40:06.211Z,99.60
2022-10-13T22:43:08.769Z,99.80
2022-10-13T22:46:11.955Z,99.90
2022-10-13T22:49:14.878Z,99.90
2022-10-13T22:52:16.937Z,99.90
2022-10-13T22:55:19.284Z,99.90
2022-10-13T22:58:21.329Z,99.90
2022-10-13T23:01:24.105Z,99.90
2022-10-13T23:04:26.239Z,99.90
2022-10-13T23:07:29.865Z,99.90
2022-10-13T23:10:31.909Z,99.90
2022-10-13T23:13:33.960Z,99.90
2022-10-13T23:16:36.185Z,99.90
2022-10-13T23:19:38.495Z,99.90
2022-10-13T23:22:40.492Z,99.90
2022-10-13T23:25:43.429Z,99.90
2022-10-13T23:28:47.362Z,99.90
2022-10-13T23:31:49.606Z,99.90
2022-10-13T23:34:51.797Z,99.90
2022-10-13T23:37:53.948Z,99.90
2022-10-13T23:40:56.363Z,99.90
2022-10-13T23:43:58.970Z,99.90
2022-10-13T23:47:01.053Z,99.90
2022-10-13T23:50:03.631Z,99.90
2022-10-13T23:53:05.627Z,99.90
2022-10-13T23:56:09.903Z,99.90
2022-10-13T23:59:11.973Z,99.90
